sensor_id;sensor_type;location;lat;lon;timestamp;pressure;altitude;pressure_sealevel;temperature;humidity
3150;BME280;32503;47.748;8.960;2023-04-15T00:02:22;95926.66;;;7.15;57.83
3150;BME280;32503;47.748;8.960;2023-04-15T00:04:49;95925.66;;;7.04;57.63
3150;BME280;32503;47.748;8.960;2023-04-15T00:07:17;95921.72;;;6.98;58.41
3150;BME280;32503;47.748;8.960;2023-04-15T00:09:44;95922.84;;;6.97;58.70
3150;BME280;32503;47.748;8.960;2023-04-15T00:12:12;95916.13;;;6.87;59.08
3150;BME280;32503;47.748;8.960;2023-04-15T00:14:39;95916.13;;;6.87;59.62
3150;BME280;32503;47.748;8.960;2023-04-15T00:17:06;95918.41;;;6.85;59.31
3150;BME280;32503;47.748;8.960;2023-04-15T00:19:33;95913.22;;;6.76;59.84
3150;BME280;32503;47.748;8.960;2023-04-15T00:22:01;95922.13;;;6.80;59.30
3150;BME280;32503;47.748;8.960;2023-04-15T00:24:29;95915.69;;;6.85;59.90
3150;BME280;32503;47.748;8.960;2023-04-15T00:26:57;95925.09;;;6.75;59.24
3150;BME280;32503;47.748;8.960;2023-04-15T00:29:24;95928.78;;;6.67;60.58
3150;BME280;32503;47.748;8.960;2023-04-15T00:31:52;95913.63;;;6.59;60.44
3150;BME280;32503;47.748;8.960;2023-04-15T00:34:19;95920.84;;;6.55;60.03
3150;BME280;32503;47.748;8.960;2023-04-15T00:36:46;95913.91;;;6.54;60.30
3150;BME280;32503;47.748;8.960;2023-04-15T00:39:14;95921.53;;;6.52;60.13
3150;BME280;32503;47.748;8.960;2023-04-15T00:41:42;95911.28;;;6.57;59.27
3150;BME280;32503;47.748;8.960;2023-04-15T00:44:10;95901.59;;;6.53;59.34
3150;BME280;32503;47.748;8.960;2023-04-15T00:46:38;95920.09;;;6.58;58.75
3150;BME280;32503;47.748;8.960;2023-04-15T00:49:06;95917.28;;;6.51;59.31
3150;BME280;32503;47.748;8.960;2023-04-15T00:51:36;95917.53;;;6.45;59.08
3150;BME280;32503;47.748;8.960;2023-04-15T00:54:04;95914.44;;;6.43;59.63
3150;BME280;32503;47.748;8.960;2023-04-15T00:56:34;95920.75;;;6.35;59.35
3150;BME280;32503;47.748;8.960;2023-04-15T00:59:04;95916.13;;;6.32;59.87
3150;BME280;32503;47.748;8.960;2023-04-15T01:01:34;95928.38;;;6.33;59.58
3150;BME280;32503;47.748;8.960;2023-04-15T01:04:01;95927.69;;;6.36;59.11
3150;BME280;32503;47.748;8.960;2023-04-15T01:06:29;95929.09;;;6.30;58.85
3150;BME280;32503;47.748;8.960;2023-04-15T01:08:57;95930.13;;;6.41;58.66
3150;BME280;32503;47.748;8.960;2023-04-15T01:11:25;95928.13;;;6.38;59.62
3150;BME280;32503;47.748;8.960;2023-04-15T01:13:54;95930.38;;;6.36;59.30
3150;BME280;32503;47.748;8.960;2023-04-15T01:16:23;95938.53;;;6.24;59.28
3150;BME280;32503;47.748;8.960;2023-04-15T01:18:50;95933.84;;;6.21;59.79
3150;BME280;32503;47.748;8.960;2023-04-15T01:21:18;95939.06;;;6.14;60.02
3150;BME280;32503;47.748;8.960;2023-04-15T01:23:47;95940.28;;;6.00;60.34
3150;BME280;32503;47.748;8.960;2023-04-15T01:26:16;95940.28;;;6.00;60.46
3150;BME280;32503;47.748;8.960;2023-04-15T01:28:43;95940.38;;;6.04;60.21
3150;BME280;32503;47.748;8.960;2023-04-15T01:31:13;95938.81;;;6.03;60.06
3150;BME280;32503;47.748;8.960;2023-04-15T01:33:41;95932.47;;;5.95;60.56
3150;BME280;32503;47.748;8.960;2023-04-15T01:36:09;95931.16;;;5.89;60.13
3150;BME280;32503;47.748;8.960;2023-04-15T01:38:37;95925.38;;;5.87;60.43
3150;BME280;32503;47.748;8.960;2023-04-15T01:41:04;95928.81;;;5.87;60.46
3150;BME280;32503;47.748;8.960;2023-04-15T01:43:34;95920.78;;;5.72;60.78
3150;BME280;32503;47.748;8.960;2023-04-15T01:46:02;95926.94;;;5.72;61.00
3150;BME280;32503;47.748;8.960;2023-04-15T01:48:29;95931.06;;;5.69;60.57
3150;BME280;32503;47.748;8.960;2023-04-15T01:50:56;95920.75;;;5.56;61.71
3150;BME280;32503;47.748;8.960;2023-04-15T01:53:23;95936.50;;;5.57;61.60
3150;BME280;32503;47.748;8.960;2023-04-15T01:55:50;95931.47;;;5.56;61.32
3150;BME280;32503;47.748;8.960;2023-04-15T01:58:18;95940.66;;;5.55;61.26
3150;BME280;32503;47.748;8.960;2023-04-15T02:00:46;95937.47;;;5.49;61.75
3150;BME280;32503;47.748;8.960;2023-04-15T02:03:13;95936.06;;;5.55;61.51
3150;BME280;32503;47.748;8.960;2023-04-15T02:05:40;95933.88;;;5.45;61.81
3150;BME280;32503;47.748;8.960;2023-04-15T02:08:08;95932.09;;;5.49;61.80
3150;BME280;32503;47.748;8.960;2023-04-15T02:10:35;95931.06;;;5.54;61.01
3150;BME280;32503;47.748;8.960;2023-04-15T02:13:02;95939.00;;;5.50;61.36
3150;BME280;32503;47.748;8.960;2023-04-15T02:15:29;95940.63;;;5.39;61.27
3150;BME280;32503;47.748;8.960;2023-04-15T02:17:59;95937.47;;;5.49;61.12
3150;BME280;32503;47.748;8.960;2023-04-15T02:20:26;95935.13;;;5.47;61.08
3150;BME280;32503;47.748;8.960;2023-04-15T02:22:55;95937.28;;;5.42;60.96
3150;BME280;32503;47.748;8.960;2023-04-15T02:25:22;95941.75;;;5.38;60.88
3150;BME280;32503;47.748;8.960;2023-04-15T02:27:49;95930.59;;;5.36;61.00
3150;BME280;32503;47.748;8.960;2023-04-15T02:30:16;95939.31;;;5.32;61.11
3150;BME280;32503;47.748;8.960;2023-04-15T02:32:43;95941.78;;;5.25;61.32
3150;BME280;32503;47.748;8.960;2023-04-15T02:35:13;95935.22;;;5.23;61.37
3150;BME280;32503;47.748;8.960;2023-04-15T02:37:40;95934.69;;;5.17;61.55
3150;BME280;32503;47.748;8.960;2023-04-15T02:40:09;95936.69;;;5.20;61.56
3150;BME280;32503;47.748;8.960;2023-04-15T02:42:38;95934.66;;;5.29;61.39
3150;BME280;32503;47.748;8.960;2023-04-15T02:45:06;95935.38;;;5.14;61.83
3150;BME280;32503;47.748;8.960;2023-04-15T02:47:33;95941.41;;;5.11;62.27
3150;BME280;32503;47.748;8.960;2023-04-15T02:50:03;95949.34;;;5.07;62.05
3150;BME280;32503;47.748;8.960;2023-04-15T02:52:31;95936.28;;;5.06;62.19
3150;BME280;32503;47.748;8.960;2023-04-15T02:54:58;95938.28;;;5.09;62.02
3150;BME280;32503;47.748;8.960;2023-04-15T02:57:27;95938.72;;;5.11;62.09
3150;BME280;32503;47.748;8.960;2023-04-15T02:59:54;95937.06;;;5.06;61.88
3150;BME280;32503;47.748;8.960;2023-04-15T03:02:21;95936.28;;;5.06;62.20
3150;BME280;32503;47.748;8.960;2023-04-15T03:04:48;95944.66;;;5.04;62.32
3150;BME280;32503;47.748;8.960;2023-04-15T03:07:17;95952.56;;;5.13;61.74
3150;BME280;32503;47.748;8.960;2023-04-15T03:09:45;95953.34;;;5.13;61.85
3150;BME280;32503;47.748;8.960;2023-04-15T03:12:12;95954.28;;;5.05;61.68
3150;BME280;32503;47.748;8.960;2023-04-15T03:14:39;95946.28;;;4.93;62.05
3150;BME280;32503;47.748;8.960;2023-04-15T03:17:06;95949.53;;;4.86;62.06
3150;BME280;32503;47.748;8.960;2023-04-15T03:19:33;95948.66;;;4.82;62.17
3150;BME280;32503;47.748;8.960;2023-04-15T03:22:00;95938.41;;;4.72;62.45
3150;BME280;32503;47.748;8.960;2023-04-15T03:24:27;95948.25;;;4.68;62.70
3150;BME280;32503;47.748;8.960;2023-04-15T03:26:56;95948.91;;;4.65;62.59
3150;BME280;32503;47.748;8.960;2023-04-15T03:29:23;95941.22;;;4.63;62.67
3150;BME280;32503;47.748;8.960;2023-04-15T03:31:51;95938.00;;;4.58;62.87
3150;BME280;32503;47.748;8.960;2023-04-15T03:34:18;95945.09;;;4.66;62.91
3150;BME280;32503;47.748;8.960;2023-04-15T03:36:45;95943.56;;;4.65;63.09
3150;BME280;32503;47.748;8.960;2023-04-15T03:39:12;95947.78;;;4.66;63.07
3150;BME280;32503;47.748;8.960;2023-04-15T03:41:40;95942.19;;;4.71;62.77
3150;BME280;32503;47.748;8.960;2023-04-15T03:44:08;95947.88;;;4.69;62.92
3150;BME280;32503;47.748;8.960;2023-04-15T03:46:35;95941.31;;;4.67;63.16
3150;BME280;32503;47.748;8.960;2023-04-15T03:49:02;95940.88;;;4.65;63.28
3150;BME280;32503;47.748;8.960;2023-04-15T03:51:29;95943.31;;;4.70;63.34
3150;BME280;32503;47.748;8.960;2023-04-15T03:53:57;95951.25;;;4.66;63.33
3150;BME280;32503;47.748;8.960;2023-04-15T03:56:24;95949.34;;;4.67;63.80
3150;BME280;32503;47.748;8.960;2023-04-15T03:58:51;95940.53;;;4.66;63.34
3150;BME280;32503;47.748;8.960;2023-04-15T04:01:20;95939.19;;;4.60;63.33
3150;BME280;32503;47.748;8.960;2023-04-15T04:03:47;95950.44;;;4.66;63.28
3150;BME280;32503;47.748;8.960;2023-04-15T04:06:14;95948.25;;;4.68;63.05
3150;BME280;32503;47.748;8.960;2023-04-15T04:08:41;95948.25;;;4.68;62.91
3150;BME280;32503;47.748;8.960;2023-04-15T04:11:08;95953.38;;;4.61;63.25
3150;BME280;32503;47.748;8.960;2023-04-15T04:13:35;95956.97;;;4.52;63.51
3150;BME280;32503;47.748;8.960;2023-04-15T04:16:03;95958.16;;;4.55;63.51
3150;BME280;32503;47.748;8.960;2023-04-15T04:18:32;95955.06;;;4.53;63.38
3150;BME280;32503;47.748;8.960;2023-04-15T04:20:59;95955.81;;;4.53;63.30
3150;BME280;32503;47.748;8.960;2023-04-15T04:23:26;95949.81;;;4.56;63.23
3150;BME280;32503;47.748;8.960;2023-04-15T04:25:53;95955.25;;;4.60;63.05
3150;BME280;32503;47.748;8.960;2023-04-15T04:28:21;95952.16;;;4.58;63.58
3150;BME280;32503;47.748;8.960;2023-04-15T04:30:48;95948.47;;;4.63;63.38
3150;BME280;32503;47.748;8.960;2023-04-15T04:33:15;95955.81;;;4.66;63.40
3150;BME280;32503;47.748;8.960;2023-04-15T04:35:43;95947.34;;;4.64;63.64
3150;BME280;32503;47.748;8.960;2023-04-15T04:38:11;95948.78;;;4.73;63.43
3150;BME280;32503;47.748;8.960;2023-04-15T04:40:38;95953.00;;;4.74;63.30
3150;BME280;32503;47.748;8.960;2023-04-15T04:43:05;95950.91;;;4.80;63.28
3150;BME280;32503;47.748;8.960;2023-04-15T04:45:32;95947.84;;;4.82;63.41
3150;BME280;32503;47.748;8.960;2023-04-15T04:47:59;95948.31;;;4.84;63.33
3150;BME280;32503;47.748;8.960;2023-04-15T04:50:26;95947.97;;;4.85;63.40
3150;BME280;32503;47.748;8.960;2023-04-15T04:52:54;95947.72;;;4.90;63.17
3150;BME280;32503;47.748;8.960;2023-04-15T04:55:21;95955.09;;;4.93;63.23
3150;BME280;32503;47.748;8.960;2023-04-15T04:57:48;95954.22;;;4.89;63.73
3150;BME280;32503;47.748;8.960;2023-04-15T05:00:17;95960.94;;;5.11;63.78
3150;BME280;32503;47.748;8.960;2023-04-15T05:02:45;95964.75;;;5.39;63.26
3150;BME280;32503;47.748;8.960;2023-04-15T05:05:12;95966.31;;;5.56;63.19
3150;BME280;32503;47.748;8.960;2023-04-15T05:07:39;95963.44;;;5.77;62.58
3150;BME280;32503;47.748;8.960;2023-04-15T05:10:09;95967.56;;;6.02;62.05
3150;BME280;32503;47.748;8.960;2023-04-15T05:12:36;95959.25;;;6.23;61.51
3150;BME280;32503;47.748;8.960;2023-04-15T05:15:04;95959.66;;;6.41;62.04
3150;BME280;32503;47.748;8.960;2023-04-15T05:17:31;95964.56;;;6.55;61.27
3150;BME280;32503;47.748;8.960;2023-04-15T05:20:00;95964.19;;;6.73;61.00
3150;BME280;32503;47.748;8.960;2023-04-15T05:22:27;95973.16;;;6.80;60.40
3150;BME280;32503;47.748;8.960;2023-04-15T05:24:54;95971.41;;;6.88;60.24
3150;BME280;32503;47.748;8.960;2023-04-15T05:27:22;95967.09;;;6.83;59.44
3150;BME280;32503;47.748;8.960;2023-04-15T05:29:49;95967.59;;;6.89;59.27
3150;BME280;32503;47.748;8.960;2023-04-15T05:32:16;95966.56;;;6.94;59.14
3150;BME280;32503;47.748;8.960;2023-04-15T05:34:43;95958.63;;;7.01;58.91
3150;BME280;32503;47.748;8.960;2023-04-15T05:37:11;95962.88;;;7.02;59.42
3150;BME280;32503;47.748;8.960;2023-04-15T05:39:38;95967.81;;;7.00;59.05
3150;BME280;32503;47.748;8.960;2023-04-15T05:42:05;95979.09;;;6.90;58.95
3150;BME280;32503;47.748;8.960;2023-04-15T05:44:33;95984.19;;;6.75;59.00
3150;BME280;32503;47.748;8.960;2023-04-15T05:47:00;95973.91;;;6.61;59.62
3150;BME280;32503;47.748;8.960;2023-04-15T05:49:28;95967.25;;;6.55;59.71
3150;BME280;32503;47.748;8.960;2023-04-15T05:51:55;95975.72;;;6.57;59.00
3150;BME280;32503;47.748;8.960;2023-04-15T05:54:22;95973.13;;;6.61;59.05
3150;BME280;32503;47.748;8.960;2023-04-15T05:56:49;95981.69;;;6.67;59.34
3150;BME280;32503;47.748;8.960;2023-04-15T05:59:16;95975.97;;;6.68;59.14
3150;BME280;32503;47.748;8.960;2023-04-15T06:01:45;95970.41;;;6.77;59.64
3150;BME280;32503;47.748;8.960;2023-04-15T06:04:12;95971.03;;;6.70;59.90
3150;BME280;32503;47.748;8.960;2023-04-15T06:06:39;95978.72;;;6.72;60.11
3150;BME280;32503;47.748;8.960;2023-04-15T06:09:06;95975.78;;;6.77;60.63
3150;BME280;32503;47.748;8.960;2023-04-15T06:11:33;95976.69;;;6.84;60.60
3150;BME280;32503;47.748;8.960;2023-04-15T06:14:01;95973.88;;;6.97;59.68
3150;BME280;32503;47.748;8.960;2023-04-15T06:16:27;95980.97;;;7.05;59.88
3150;BME280;32503;47.748;8.960;2023-04-15T06:18:56;95972.91;;;7.05;60.49
3150;BME280;32503;47.748;8.960;2023-04-15T06:21:23;95981.31;;;7.03;60.66
3150;BME280;32503;47.748;8.960;2023-04-15T06:23:50;95979.59;;;7.11;60.87
3150;BME280;32503;47.748;8.960;2023-04-15T06:26:17;95972.78;;;7.17;60.01
3150;BME280;32503;47.748;8.960;2023-04-15T06:28:44;95967.97;;;7.27;59.66
3150;BME280;32503;47.748;8.960;2023-04-15T06:31:11;95974.00;;;7.39;59.79
3150;BME280;32503;47.748;8.960;2023-04-15T06:33:38;95972.28;;;7.51;59.84
3150;BME280;32503;47.748;8.960;2023-04-15T06:36:07;95977.66;;;7.51;60.32
3150;BME280;32503;47.748;8.960;2023-04-15T06:38:34;95980.41;;;7.54;59.91
3150;BME280;32503;47.748;8.960;2023-04-15T06:41:01;95982.53;;;7.65;60.08
3150;BME280;32503;47.748;8.960;2023-04-15T06:43:29;95976.84;;;7.70;59.88
3150;BME280;32503;47.748;8.960;2023-04-15T06:45:56;95978.22;;;7.83;60.02
3150;BME280;32503;47.748;8.960;2023-04-15T06:48:23;95984.00;;;8.05;59.40
3150;BME280;32503;47.748;8.960;2023-04-15T06:50:51;95977.72;;;8.20;59.23
3150;BME280;32503;47.748;8.960;2023-04-15T06:53:19;95984.81;;;8.32;58.39
3150;BME280;32503;47.748;8.960;2023-04-15T06:55:46;95977.34;;;8.45;58.25
3150;BME280;32503;47.748;8.960;2023-04-15T06:58:13;95974.56;;;8.64;57.74
3150;BME280;32503;47.748;8.960;2023-04-15T07:00:41;95980.47;;;9.00;58.84
3150;BME280;32503;47.748;8.960;2023-04-15T07:03:08;95983.09;;;9.98;62.92
3150;BME280;32503;47.748;8.960;2023-04-15T07:05:35;95975.28;;;10.79;63.44
3150;BME280;32503;47.748;8.960;2023-04-15T07:08:03;95985.84;;;11.06;61.22
3150;BME280;32503;47.748;8.960;2023-04-15T07:10:32;95980.84;;;11.11;57.94
3150;BME280;32503;47.748;8.960;2023-04-15T07:12:59;95970.41;;;11.06;56.30
3150;BME280;32503;47.748;8.960;2023-04-15T07:15:26;95973.56;;;11.15;55.39
3150;BME280;32503;47.748;8.960;2023-04-15T07:17:53;95970.91;;;11.30;53.91
3150;BME280;32503;47.748;8.960;2023-04-15T07:20:21;95970.53;;;11.35;52.20
3150;BME280;32503;47.748;8.960;2023-04-15T07:22:47;95968.53;;;11.21;50.11
3150;BME280;32503;47.748;8.960;2023-04-15T07:25:15;95970.06;;;11.22;49.97
3150;BME280;32503;47.748;8.960;2023-04-15T07:27:43;95970.84;;;11.19;49.75
3150;BME280;32503;47.748;8.960;2023-04-15T07:30:11;95960.03;;;11.15;50.05
3150;BME280;32503;47.748;8.960;2023-04-15T07:32:38;95970.53;;;11.31;50.42
3150;BME280;32503;47.748;8.960;2023-04-15T07:35:06;95973.31;;;11.53;49.84
3150;BME280;32503;47.748;8.960;2023-04-15T07:37:34;95971.00;;;11.62;48.32
3150;BME280;32503;47.748;8.960;2023-04-15T07:40:02;95970.97;;;11.51;48.30
3150;BME280;32503;47.748;8.960;2023-04-15T07:42:31;95972.44;;;11.31;49.61
3150;BME280;32503;47.748;8.960;2023-04-15T07:45:00;95967.81;;;11.28;50.16
3150;BME280;32503;47.748;8.960;2023-04-15T07:47:27;95970.16;;;11.36;49.71
3150;BME280;32503;47.748;8.960;2023-04-15T07:49:54;95974.06;;;11.50;49.40
3150;BME280;32503;47.748;8.960;2023-04-15T07:52:21;95967.88;;;11.42;49.77
3150;BME280;32503;47.748;8.960;2023-04-15T07:54:48;95971.97;;;11.14;49.90
3150;BME280;32503;47.748;8.960;2023-04-15T07:57:15;95975.81;;;11.06;50.56
3150;BME280;32503;47.748;8.960;2023-04-15T07:59:43;95969.53;;;10.88;51.54
3150;BME280;32503;47.748;8.960;2023-04-15T08:02:11;95956.59;;;10.56;52.18
3150;BME280;32503;47.748;8.960;2023-04-15T08:04:39;95959.75;;;10.69;51.92
3150;BME280;32503;47.748;8.960;2023-04-15T08:07:06;95967.59;;;10.88;52.00
3150;BME280;32503;47.748;8.960;2023-04-15T08:09:32;95973.47;;;11.05;51.96
3150;BME280;32503;47.748;8.960;2023-04-15T08:12:00;95968.16;;;11.19;51.45
3150;BME280;32503;47.748;8.960;2023-04-15T08:14:28;95971.66;;;11.27;51.36
3150;BME280;32503;47.748;8.960;2023-04-15T08:16:55;95976.31;;;11.30;51.26
3150;BME280;32503;47.748;8.960;2023-04-15T08:19:24;95977.88;;;11.42;51.04
3150;BME280;32503;47.748;8.960;2023-04-15T08:21:51;95973.72;;;11.58;50.73
3150;BME280;32503;47.748;8.960;2023-04-15T08:24:18;95981.75;;;11.41;51.01
3150;BME280;32503;47.748;8.960;2023-04-15T08:26:45;95982.50;;;11.30;50.49
3150;BME280;32503;47.748;8.960;2023-04-15T08:29:12;95977.03;;;11.19;51.29
3150;BME280;32503;47.748;8.960;2023-04-15T08:31:39;95975.50;;;11.22;51.92
3150;BME280;32503;47.748;8.960;2023-04-15T08:34:06;95977.09;;;11.37;51.24
3150;BME280;32503;47.748;8.960;2023-04-15T08:36:35;95972.13;;;11.54;51.46
3150;BME280;32503;47.748;8.960;2023-04-15T08:39:02;95975.69;;;11.72;51.19
3150;BME280;32503;47.748;8.960;2023-04-15T08:41:38;95971.84;;;11.81;50.38
3150;BME280;32503;47.748;8.960;2023-04-15T08:44:06;95975.69;;;11.72;51.07
3150;BME280;32503;47.748;8.960;2023-04-15T08:46:33;95973.38;;;11.74;51.05
3150;BME280;32503;47.748;8.960;2023-04-15T08:49:04;95969.88;;;11.74;51.06
3150;BME280;32503;47.748;8.960;2023-04-15T08:51:32;95978.09;;;11.95;51.37
3150;BME280;32503;47.748;8.960;2023-04-15T08:54:01;95978.91;;;12.28;51.33
3150;BME280;32503;47.748;8.960;2023-04-15T08:56:30;95977.31;;;12.63;50.07
3150;BME280;32503;47.748;8.960;2023-04-15T08:58:59;95967.22;;;12.93;49.55
3150;BME280;32503;47.748;8.960;2023-04-15T09:01:26;95960.19;;;13.13;49.06
3150;BME280;32503;47.748;8.960;2023-04-15T09:03:53;95969.38;;;13.48;47.77
3150;BME280;32503;47.748;8.960;2023-04-15T09:06:22;95959.25;;;13.59;46.96
3150;BME280;32503;47.748;8.960;2023-04-15T09:08:50;95963.16;;;13.51;46.61
3150;BME280;32503;47.748;8.960;2023-04-15T09:11:20;95954.94;;;13.65;46.78
3150;BME280;32503;47.748;8.960;2023-04-15T09:13:48;95957.56;;;13.87;46.57
3150;BME280;32503;47.748;8.960;2023-04-15T09:16:15;95962.84;;;14.09;45.85
3150;BME280;32503;47.748;8.960;2023-04-15T09:18:42;95970.06;;;14.33;45.33
3150;BME280;32503;47.748;8.960;2023-04-15T09:21:11;95959.13;;;14.40;44.29
3150;BME280;32503;47.748;8.960;2023-04-15T09:23:40;95963.91;;;14.74;43.81
3150;BME280;32503;47.748;8.960;2023-04-15T09:26:07;95964.47;;;14.93;42.61
3150;BME280;32503;47.748;8.960;2023-04-15T09:28:41;95959.72;;;15.04;42.33
3150;BME280;32503;47.748;8.960;2023-04-15T09:31:09;95967.00;;;15.14;41.94
3150;BME280;32503;47.748;8.960;2023-04-15T09:33:54;95976.34;;;15.13;41.98
3150;BME280;32503;47.748;8.960;2023-04-15T09:36:21;95973.69;;;15.06;42.17
3150;BME280;32503;47.748;8.960;2023-04-15T09:38:55;95971.44;;;14.97;42.12
3150;BME280;32503;47.748;8.960;2023-04-15T09:41:23;95972.63;;;14.96;42.49
3150;BME280;32503;47.748;8.960;2023-04-15T09:43:52;95982.78;;;14.89;42.63
3150;BME280;32503;47.748;8.960;2023-04-15T09:46:19;95984.88;;;14.77;42.91
3150;BME280;32503;47.748;8.960;2023-04-15T09:48:46;95979.78;;;14.79;43.02
3150;BME280;32503;47.748;8.960;2023-04-15T09:51:13;95982.50;;;14.79;43.64
3150;BME280;32503;47.748;8.960;2023-04-15T09:53:40;95963.91;;;14.74;43.16
3150;BME280;32503;47.748;8.960;2023-04-15T09:56:07;95982.06;;;14.85;43.33
3150;BME280;32503;47.748;8.960;2023-04-15T09:58:35;95971.16;;;14.88;43.17
3150;BME280;32503;47.748;8.960;2023-04-15T10:01:05;95971.16;;;14.88;43.37
3150;BME280;32503;47.748;8.960;2023-04-15T10:03:34;95965.38;;;14.83;43.32
3150;BME280;32503;47.748;8.960;2023-04-15T10:06:02;95966.13;;;14.87;43.58
3150;BME280;32503;47.748;8.960;2023-04-15T10:08:32;95977.22;;;15.03;43.51
3150;BME280;32503;47.748;8.960;2023-04-15T10:11:01;95974.13;;;15.01;43.49
3150;BME280;32503;47.748;8.960;2023-04-15T10:13:30;95969.75;;;15.11;43.15
3150;BME280;32503;47.748;8.960;2023-04-15T10:16:08;95967.25;;;15.27;43.32
3150;BME280;32503;47.748;8.960;2023-04-15T10:18:41;95976.03;;;15.39;42.75
3150;BME280;32503;47.748;8.960;2023-04-15T10:21:08;95985.81;;;15.36;41.96
3150;BME280;32503;47.748;8.960;2023-04-15T10:23:35;95979.50;;;15.08;42.44
3150;BME280;32503;47.748;8.960;2023-04-15T10:26:04;95979.06;;;15.13;43.19
3150;BME280;32503;47.748;8.960;2023-04-15T10:28:31;95986.84;;;15.11;42.29
3150;BME280;32503;47.748;8.960;2023-04-15T10:30:58;95989.97;;;14.72;42.92
3150;BME280;32503;47.748;8.960;2023-04-15T10:33:28;95985.69;;;14.71;43.32
3150;BME280;32503;47.748;8.960;2023-04-15T10:35:55;95982.41;;;14.90;43.94
3150;BME280;32503;47.748;8.960;2023-04-15T10:38:39;95984.50;;;15.13;44.19
3150;BME280;32503;47.748;8.960;2023-04-15T10:41:13;95985.81;;;15.36;43.94
3150;BME280;32503;47.748;8.960;2023-04-15T10:43:49;95981.56;;;14.97;42.69
3150;BME280;32503;47.748;8.960;2023-04-15T10:46:22;95975.19;;;15.11;42.88
3150;BME280;32503;47.748;8.960;2023-04-15T10:48:53;95989.28;;;15.36;42.64
3150;BME280;32503;47.748;8.960;2023-04-15T10:51:30;95974.44;;;15.45;41.97
3150;BME280;32503;47.748;8.960;2023-04-15T10:53:58;95985.78;;;15.70;41.55
3150;BME280;32503;47.748;8.960;2023-04-15T10:56:28;95988.41;;;15.81;41.60
3150;BME280;32503;47.748;8.960;2023-04-15T10:58:59;95974.31;;;15.86;40.62
3150;BME280;32503;47.748;8.960;2023-04-15T11:01:54;95986.03;;;16.10;39.71
3150;BME280;32503;47.748;8.960;2023-04-15T11:04:52;95991.34;;;16.21;39.67
3150;BME280;32503;47.748;8.960;2023-04-15T11:07:36;95959.03;;;15.92;39.06
3150;BME280;32503;47.748;8.960;2023-04-15T11:12:57;95993.91;;;16.32;39.54
3150;BME280;32503;47.748;8.960;2023-04-15T11:15:28;95995.06;;;16.58;38.90
3150;BME280;32503;47.748;8.960;2023-04-15T11:17:56;95985.47;;;16.74;38.54
3150;BME280;32503;47.748;8.960;2023-04-15T11:20:25;95998.75;;;16.72;37.77
3150;BME280;32503;47.748;8.960;2023-04-15T11:22:53;96000.66;;;16.75;38.60
3150;BME280;32503;47.748;8.960;2023-04-15T11:25:23;95999.31;;;16.83;37.78
3150;BME280;32503;47.748;8.960;2023-04-15T11:27:52;95990.28;;;16.66;37.07
3150;BME280;32503;47.748;8.960;2023-04-15T11:30:22;95998.41;;;16.70;37.01
3150;BME280;32503;47.748;8.960;2023-04-15T11:32:50;96007.06;;;16.88;37.45
3150;BME280;32503;47.748;8.960;2023-04-15T11:35:18;96011.09;;;17.03;37.34
3150;BME280;32503;47.748;8.960;2023-04-15T11:37:48;96013.00;;;17.07;37.03
3150;BME280;32503;47.748;8.960;2023-04-15T11:40:16;96001.47;;;17.19;36.97
3150;BME280;32503;47.748;8.960;2023-04-15T11:43:03;96018.28;;;17.37;36.31
3150;BME280;32503;47.748;8.960;2023-04-15T11:45:31;96012.53;;;17.32;35.82
3150;BME280;32503;47.748;8.960;2023-04-15T11:48:05;96020.59;;;17.19;35.49
3150;BME280;32503;47.748;8.960;2023-04-15T11:50:34;96004.16;;;16.99;34.95
3150;BME280;32503;47.748;8.960;2023-04-15T11:53:04;96009.19;;;17.00;34.38
3150;BME280;32503;47.748;8.960;2023-04-15T11:55:41;96017.75;;;17.02;34.60
3150;BME280;32503;47.748;8.960;2023-04-15T11:58:11;96020.25;;;16.93;34.57
3150;BME280;32503;47.748;8.960;2023-04-15T12:00:39;96027.69;;;16.93;35.31
3150;BME280;32503;47.748;8.960;2023-04-15T12:03:16;96030.34;;;16.96;34.96
3150;BME280;32503;47.748;8.960;2023-04-15T12:06:08;96030.81;;;16.91;33.90
3150;BME280;32503;47.748;8.960;2023-04-15T12:08:57;96035.06;;;16.92;33.73
3150;BME280;32503;47.748;8.960;2023-04-15T12:11:37;96040.47;;;16.96;33.44
3150;BME280;32503;47.748;8.960;2023-04-15T12:14:08;96024.88;;;16.96;33.30
3150;BME280;32503;47.748;8.960;2023-04-15T12:16:39;96044.09;;;17.13;33.10
3150;BME280;32503;47.748;8.960;2023-04-15T12:19:10;96023.13;;;17.06;33.08
3150;BME280;32503;47.748;8.960;2023-04-15T12:21:39;96049.56;;;17.33;32.78
3150;BME280;32503;47.748;8.960;2023-04-15T12:24:10;96047.22;;;17.35;32.49
3150;BME280;32503;47.748;8.960;2023-04-15T12:26:44;96044.56;;;17.31;32.29
3150;BME280;32503;47.748;8.960;2023-04-15T12:29:13;96036.00;;;17.29;32.65
3150;BME280;32503;47.748;8.960;2023-04-15T12:31:52;96055.09;;;17.53;32.04
3150;BME280;32503;47.748;8.960;2023-04-15T12:34:27;96063.06;;;17.63;32.09
3150;BME280;32503;47.748;8.960;2023-04-15T12:36:56;96063.31;;;17.29;31.17
3150;BME280;32503;47.748;8.960;2023-04-15T12:39:26;96052.06;;;17.03;31.66
3150;BME280;32503;47.748;8.960;2023-04-15T12:41:54;96067.25;;;17.04;31.99
3150;BME280;32503;47.748;8.960;2023-04-15T12:44:22;96065.25;;;17.09;32.04
3150;BME280;32503;47.748;8.960;2023-04-15T12:46:50;96062.31;;;16.96;30.81
3150;BME280;32503;47.748;8.960;2023-04-15T12:49:17;96070.09;;;16.97;30.60
3150;BME280;32503;47.748;8.960;2023-04-15T12:51:46;96071.88;;;17.08;30.49
3150;BME280;32503;47.748;8.960;2023-04-15T12:54:15;96077.03;;;17.02;31.02
3150;BME280;32503;47.748;8.960;2023-04-15T12:56:44;96080.72;;;16.92;29.04
3150;BME280;32503;47.748;8.960;2023-04-15T12:59:12;96084.28;;;16.61;29.06
3150;BME280;32503;47.748;8.960;2023-04-15T13:01:39;96084.38;;;16.54;29.77
3150;BME280;32503;47.748;8.960;2023-04-15T13:04:07;96101.88;;;16.57;30.93
3150;BME280;32503;47.748;8.960;2023-04-15T13:06:34;96090.59;;;16.55;31.72
3150;BME280;32503;47.748;8.960;2023-04-15T13:09:02;96087.69;;;16.42;29.66
3150;BME280;32503;47.748;8.960;2023-04-15T13:11:29;96084.94;;;16.42;30.11
3150;BME280;32503;47.748;8.960;2023-04-15T13:14:00;96097.03;;;16.41;31.39
3150;BME280;32503;47.748;8.960;2023-04-15T13:16:28;96095.84;;;16.42;31.96
3150;BME280;32503;47.748;8.960;2023-04-15T13:18:55;96103.47;;;16.54;32.01
3150;BME280;32503;47.748;8.960;2023-04-15T13:21:22;96100.81;;;16.51;32.06
3150;BME280;32503;47.748;8.960;2023-04-15T13:23:49;96107.03;;;16.51;33.09
3150;BME280;32503;47.748;8.960;2023-04-15T13:26:17;96104.97;;;16.59;33.31
3150;BME280;32503;47.748;8.960;2023-04-15T13:28:44;96104.38;;;16.71;33.56